createdAt,value
2022-09-02T00:04:39.192Z,16.7
2022-09-02T00:09:42.303Z,16.7
2022-09-02T00:14:44.841Z,16.7
2022-09-02T00:19:47.182Z,16.7
2022-09-02T00:24:54.972Z,16.7
2022-09-02T00:29:57.332Z,16.7
2022-09-02T00:34:59.700Z,16.8
2022-09-02T00:40:02.052Z,16.7
2022-09-02T00:45:04.783Z,16.7
2022-09-02T00:50:07.539Z,16.8
2022-09-02T00:55:10.461Z,16.7
2022-09-02T01:00:13.177Z,16.7
2022-09-02T01:05:15.624Z,16.7
2022-09-02T01:10:18.377Z,16.6
2022-09-02T01:15:20.987Z,16.5
2022-09-02T01:20:27.574Z,16.5
2022-09-02T01:25:30.173Z,16.5
2022-09-02T01:30:32.696Z,16.4
2022-09-02T01:35:35.232Z,16.4
2022-09-02T01:40:37.885Z,16.3
2022-09-02T01:45:40.359Z,16.3
2022-09-02T01:50:48.942Z,16.3
2022-09-02T01:55:51.270Z,16.3
2022-09-02T02:00:53.948Z,16.3
2022-09-02T02:05:56.406Z,16.3
2022-09-02T02:10:59.220Z,16.3
2022-09-02T02:16:01.950Z,16.3
2022-09-02T02:21:04.934Z,16.2
2022-09-02T02:26:08.066Z,16.2
2022-09-02T02:31:10.961Z,16.2
2022-09-02T02:36:13.600Z,16.2
2022-09-02T02:41:16.082Z,16.1
2022-09-02T02:46:21.474Z,16.1
2022-09-02T02:51:24.184Z,16.1
2022-09-02T02:56:27.033Z,16
2022-09-02T03:01:29.548Z,16
2022-09-02T03:06:32.601Z,16
2022-09-02T03:11:35.426Z,16
2022-09-02T03:16:37.735Z,16
2022-09-02T03:21:41.234Z,15.9
2022-09-02T03:26:43.882Z,15.9
2022-09-02T03:31:46.965Z,15.9
2022-09-02T03:36:49.814Z,15.9
2022-09-02T03:41:52.123Z,15.9
2022-09-02T03:46:54.356Z,15.9
2022-09-02T03:51:56.733Z,15.9
2022-09-02T03:56:59.664Z,15.9
2022-09-02T04:02:03.320Z,15.9
2022-09-02T04:07:05.991Z,15.9
2022-09-02T04:12:08.779Z,15.9
2022-09-02T04:17:11.299Z,15.9
2022-09-02T04:22:13.645Z,16
2022-09-02T04:27:16.250Z,15.9
2022-09-02T04:32:18.865Z,16
2022-09-02T04:37:21.415Z,16
2022-09-02T04:42:23.761Z,16
2022-09-02T04:47:26.663Z,16
2022-09-02T04:52:28.965Z,16
2022-09-02T04:57:31.542Z,16.1
2022-09-02T05:02:34.258Z,16.2
2022-09-02T05:07:37.205Z,16.1
2022-09-02T05:12:39.952Z,16.3
2022-09-02T05:17:42.334Z,16.2
2022-09-02T05:22:44.637Z,16.3
2022-09-02T05:27:46.933Z,16.3
2022-09-02T05:32:49.263Z,16.4
2022-09-02T05:37:52.828Z,16.4
2022-09-02T05:43:02.159Z,16.4
2022-09-02T05:48:04.836Z,16.5
2022-09-02T05:53:13.807Z,16.5
2022-09-02T05:58:12.244Z,16.5
2022-09-02T06:03:14.952Z,16.5
2022-09-02T06:08:17.564Z,16.5
2022-09-02T06:13:20.495Z,16.6
2022-09-02T06:18:26.953Z,16.6
2022-09-02T06:23:29.601Z,16.6
2022-09-02T06:28:31.916Z,16.5
2022-09-02T06:33:34.274Z,16.5
2022-09-02T06:38:36.578Z,16.5
2022-09-02T06:43:45.878Z,16.5
2022-09-02T06:48:42.099Z,16.5
2022-09-02T06:53:44.817Z,16.7
2022-09-02T06:58:47.173Z,16.7
2022-09-02T07:03:49.962Z,16.7
2022-09-02T07:08:52.237Z,16.6
2022-09-02T07:13:56.484Z,16.8
2022-09-02T07:18:59.279Z,16.8
2022-09-02T07:24:02.128Z,16.8
2022-09-02T07:29:06.803Z,16.8
2022-09-02T07:34:09.710Z,16.9
2022-09-02T07:39:12.458Z,16.8
2022-09-02T07:44:15.050Z,16.9
2022-09-02T07:49:24.035Z,16.9
2022-09-02T07:54:27.108Z,17
2022-09-02T07:59:31.626Z,17.1
2022-09-02T08:04:34.245Z,17.2
2022-09-02T08:09:36.576Z,17.2
2022-09-02T08:14:39.296Z,17.5
2022-09-02T08:19:42.793Z,17.3
2022-09-02T08:24:45.424Z,17.3
2022-09-02T08:29:48.131Z,17.4
2022-09-02T08:34:50.780Z,17.5
2022-09-02T08:39:53.599Z,17.4
2022-09-02T08:44:57.434Z,17.6
2022-09-02T08:50:00.532Z,17.6
2022-09-02T08:55:03.233Z,17.6
2022-09-02T09:00:09.548Z,17.8
2022-09-02T09:05:12.850Z,17.8
2022-09-02T09:10:17.368Z,18.1
2022-09-02T09:15:20.533Z,18.1
2022-09-02T09:20:23.031Z,18.1
2022-09-02T09:25:25.565Z,18.3
2022-09-02T09:30:27.877Z,18.2
2022-09-02T09:35:30.611Z,18.6
2022-09-02T09:40:33.422Z,18.7
2022-09-02T09:45:36.234Z,19
2022-09-02T09:50:38.875Z,19.1
2022-09-02T09:55:41.932Z,19.4
2022-09-02T10:00:44.580Z,19.3
2022-09-02T10:05:46.915Z,19.2
2022-09-02T10:10:49.467Z,19.4
2022-09-02T10:15:52.160Z,19.3
2022-09-02T10:21:24.764Z,19.4
2022-09-02T10:25:57.148Z,19.4
2022-09-02T10:30:59.682Z,19.9
2022-09-02T10:36:01.993Z,19.9
2022-09-02T10:41:04.649Z,20.1
2022-09-02T10:46:07.220Z,20.5
2022-09-02T10:51:09.927Z,20.5
2022-09-02T10:56:12.484Z,20.5
2022-09-02T11:01:17.895Z,21.4
2022-09-02T11:06:20.580Z,21.6
2022-09-02T11:11:25.906Z,21.5
2022-09-02T11:16:28.942Z,21.8
2022-09-02T11:21:34.658Z,21.4
2022-09-02T11:26:37.116Z,21.4
2022-09-02T11:31:41.431Z,21.9
2022-09-02T11:36:43.991Z,21.9
2022-09-02T11:41:46.643Z,23
2022-09-02T11:46:49.785Z,23.5
2022-09-02T11:51:52.730Z,24.2
2022-09-02T11:56:55.654Z,24.2
2022-09-02T12:01:59.304Z,23.6
2022-09-02T12:07:10.457Z,23
2022-09-02T12:12:03.753Z,22.6
2022-09-02T12:17:07.556Z,22.2
2022-09-02T12:22:14.709Z,21.8
2022-09-02T12:27:18.336Z,21.9
2022-09-02T12:32:21.214Z,21.7
2022-09-02T12:37:23.801Z,21.8
2022-09-02T12:42:26.451Z,21.9
2022-09-02T12:47:28.763Z,21.9
2022-09-02T12:52:32.070Z,21.5
2022-09-02T12:57:34.404Z,21.2
2022-09-02T13:02:36.702Z,21
2022-09-02T13:07:38.994Z,20.9
2022-09-02T13:12:42.168Z,20.9
2022-09-02T13:17:45.156Z,20.6
2022-09-02T13:22:47.592Z,20.5
2022-09-02T13:27:52.464Z,20.1
2022-09-02T13:32:56.508Z,20.1
2022-09-02T13:37:59.591Z,19.9
2022-09-02T13:43:03.087Z,19.9
2022-09-02T13:48:06.376Z,19.9
2022-09-02T13:54:23.759Z,20.2
2022-09-02T13:58:16.496Z,20.3
2022-09-02T14:03:19.575Z,20.2
2022-09-02T14:08:23.710Z,20.2
2022-09-02T14:13:26.281Z,20.2
2022-09-02T14:18:29.956Z,20.3
2022-09-02T14:23:32.284Z,19.9
2022-09-02T14:28:35.062Z,18.6
2022-09-02T14:33:37.521Z,18.6
2022-09-02T14:38:39.838Z,18.1
2022-09-02T14:43:42.113Z,17.7
2022-09-02T14:48:44.438Z,17.3
2022-09-02T14:53:47.427Z,17.4
2022-09-02T14:58:50.367Z,17.2
2022-09-02T15:03:53.277Z,17.3
2022-09-02T15:08:55.949Z,17.3
2022-09-02T15:13:58.736Z,17.5
2022-09-02T15:19:01.618Z,17.5
2022-09-02T15:24:03.892Z,17.5
2022-09-02T15:29:06.333Z,17.5
2022-09-02T15:34:09.106Z,17.3
2022-09-02T15:39:11.865Z,17.3
2022-09-02T15:44:15.498Z,17.2
2022-09-02T15:49:18.433Z,17.2
2022-09-02T15:54:21.057Z,17.2
2022-09-02T15:59:23.638Z,17.1
2022-09-02T16:04:29.639Z,17.1
2022-09-02T16:09:32.156Z,17
2022-09-02T16:14:35.008Z,17.1
2022-09-02T16:19:39.691Z,17.1
2022-09-02T16:24:44.880Z,17
2022-09-02T16:29:48.467Z,17
2022-09-02T16:34:51.328Z,17
2022-09-02T16:39:55.514Z,17
2022-09-02T16:44:57.997Z,16.9
2022-09-02T16:50:00.710Z,17
2022-09-02T16:55:03.135Z,16.9
2022-09-02T17:00:05.502Z,17
2022-09-02T17:05:08.089Z,16.9
2022-09-02T17:10:10.695Z,16.8
2022-09-02T17:15:13.338Z,16.8
2022-09-02T17:20:16.349Z,16.8
2022-09-02T17:25:18.698Z,16.8
2022-09-02T17:30:21.491Z,16.7
2022-09-02T17:35:24.447Z,16.6
2022-09-02T17:40:27.257Z,16.5
2022-09-02T17:45:29.831Z,16.4
2022-09-02T17:50:32.672Z,16.4
2022-09-02T17:55:35.020Z,16.3
2022-09-02T18:00:37.744Z,16.3
2022-09-02T18:05:40.521Z,16.3
2022-09-02T18:10:43.473Z,16.5
2022-09-02T18:15:45.803Z,16.5
2022-09-02T18:20:48.252Z,16.7
2022-09-02T18:25:50.859Z,16.9
2022-09-02T18:30:53.750Z,17.1
2022-09-02T18:35:57.807Z,16.9
2022-09-02T18:41:01.116Z,16.8
2022-09-02T18:46:03.940Z,16.6
2022-09-02T18:51:06.803Z,16.5
2022-09-02T18:56:09.160Z,16.5
2022-09-02T19:01:12.130Z,16.4
2022-09-02T19:06:14.873Z,16.4
2022-09-02T19:11:17.456Z,16.4
2022-09-02T19:16:20.416Z,16.4
2022-09-02T19:21:23.294Z,16.4
2022-09-02T19:26:25.865Z,16.4
2022-09-02T19:31:28.922Z,16.4
2022-09-02T19:36:33.442Z,16.4
2022-09-02T19:41:36.109Z,16.4
2022-09-02T19:48:08.200Z,16.4
2022-09-02T19:51:41.697Z,16.5
2022-09-02T19:56:44.316Z,16.5
2022-09-02T20:01:47.046Z,16.5
2022-09-02T20:06:49.838Z,16.6
2022-09-02T20:11:52.209Z,16.5
2022-09-02T20:16:54.555Z,16.6
2022-09-02T20:21:57.442Z,16.6
2022-09-02T20:27:00.104Z,16.5
2022-09-02T20:32:02.892Z,16.5
2022-09-02T20:37:05.345Z,16.5
2022-09-02T20:42:07.951Z,16.6
2022-09-02T20:47:10.896Z,16.5
2022-09-02T20:52:13.712Z,16.5
2022-09-02T20:57:16.640Z,16.5
2022-09-02T21:02:19.579Z,16.4
2022-09-02T21:07:22.292Z,16.4
2022-09-02T21:12:25.547Z,16.2
2022-09-02T21:17:28.340Z,16
2022-09-02T21:22:30.949Z,16
2022-09-02T21:27:33.830Z,16
2022-09-02T21:32:36.497Z,15.8
2022-09-02T21:37:38.763Z,15.8
2022-09-02T21:42:41.056Z,15.7
2022-09-02T21:47:43.904Z,15.5
2022-09-02T21:52:46.191Z,15.4
2022-09-02T21:57:48.786Z,15.1
2022-09-02T22:02:51.236Z,15.1
2022-09-02T22:07:53.657Z,14.9
2022-09-02T22:12:56.081Z,14.9
2022-09-02T22:17:58.401Z,14.8
2022-09-02T22:23:03.330Z,14.8
2022-09-02T22:28:05.708Z,14.8
2022-09-02T22:33:08.615Z,14.8
2022-09-02T22:38:10.904Z,14.7
2022-09-02T22:43:13.568Z,14.7
2022-09-02T22:48:16.175Z,14.6
2022-09-02T22:53:19.777Z,14.5
2022-09-02T22:58:23.094Z,14.5
2022-09-02T23:03:26.181Z,14.4
2022-09-02T23:08:28.555Z,14.3
2022-09-02T23:13:30.918Z,14.3
2022-09-02T23:18:33.238Z,14.1
2022-09-02T23:23:35.872Z,14.1
2022-09-02T23:28:38.136Z,14
2022-09-02T23:33:40.760Z,14.1
2022-09-02T23:38:43.351Z,14.1
2022-09-02T23:43:45.932Z,14.3
2022-09-02T23:48:48.553Z,14.4
2022-09-02T23:53:50.821Z,14.4
2022-09-02T23:58:53.410Z,14.5
